Time;durP1;ratioP1;P1;durP2;ratioP2;P2;SDS_P1;SDS_P2;PMS_P1;PMS_P2;Temp;Humidity;BMP_temperature;BMP_pressure;BME280_temperature;BME280_humidity;BME280_pressure;Samples;Min_cycle;Max_cycle;Signal;HPM_P1;HPM_P2
2021/01/24 00:01:25;;;;;;;8.63;6.13;;;3.00;99.90;;;;;;4978524;28;20259;-78
2021/01/24 00:03:51;;;;;;;5.50;5.00;;;2.80;99.90;;;;;;4977091;28;20223;-77
2021/01/24 00:06:16;;;;;;;5.00;3.93;;;2.80;99.90;;;;;;4975925;28;20253;-78
2021/01/24 00:08:42;;;;;;;6.53;3.73;;;2.70;99.90;;;;;;4970874;28;20230;-78
2021/01/24 00:11:07;;;;;;;3.90;3.60;;;2.60;99.90;;;;;;4972993;28;20284;-78
2021/01/24 00:13:33;;;;;;;3.13;2.70;;;2.60;99.90;;;;;;4972481;28;20251;-78
2021/01/24 00:15:59;;;;;;;3.57;2.87;;;2.50;99.90;;;;;;4972850;28;20215;-78
2021/01/24 00:18:25;;;;;;;2.70;2.47;;;2.40;99.90;;;;;;4975548;28;20218;-77
2021/01/24 00:20:50;;;;;;;3.70;3.30;;;2.40;99.90;;;;;;4957896;28;20204;-78
2021/01/24 00:23:16;;;;;;;3.00;2.63;;;2.30;99.90;;;;;;4952993;28;20296;-78
2021/01/24 00:25:41;;;;;;;2.37;2.17;;;2.30;99.90;;;;;;4972387;28;20690;-77
2021/01/24 00:28:10;;;;;;;2.97;2.67;;;2.40;99.90;;;;;;4977468;28;20250;-77
2021/01/24 00:30:38;;;;;;;2.60;2.30;;;2.30;99.90;;;;;;4977640;28;20287;-77
2021/01/24 00:33:04;;;;;;;3.05;2.70;;;2.30;99.90;;;;;;4977554;28;20229;-77
2021/01/24 00:35:30;;;;;;;4.40;3.43;;;2.30;99.90;;;;;;4977413;28;20198;-77
2021/01/24 00:37:55;;;;;;;4.23;3.83;;;2.30;99.90;;;;;;4975157;28;20226;-77
2021/01/24 00:40:21;;;;;;;6.70;3.80;;;2.20;99.90;;;;;;4978043;28;20199;-77
2021/01/24 00:42:47;;;;;;;4.50;3.67;;;2.30;99.90;;;;;;4976962;28;20219;-77
2021/01/24 00:45:12;;;;;;;4.90;4.50;;;2.30;99.90;;;;;;4972351;28;20203;-77
2021/01/24 00:47:38;;;;;;;4.20;3.80;;;2.20;99.90;;;;;;4971480;28;20211;-77
2021/01/24 00:50:06;;;;;;;4.13;3.40;;;2.20;99.90;;;;;;4972665;28;20496;-77
2021/01/24 00:52:31;;;;;;;3.70;3.03;;;2.10;99.90;;;;;;4976948;28;20982;-77
2021/01/24 00:54:57;;;;;;;3.10;2.73;;;2.10;99.90;;;;;;4977779;28;20199;-77
2021/01/24 00:57:23;;;;;;;3.90;3.00;;;2.00;99.90;;;;;;4960672;28;20277;-77
2021/01/24 00:59:48;;;;;;;2.63;2.10;;;2.10;99.90;;;;;;4976015;28;20211;-77
2021/01/24 01:02:14;;;;;;;2.27;1.87;;;2.10;99.90;;;;;;4954159;28;20214;-78
2021/01/24 01:04:40;;;;;;;2.08;1.75;;;2.10;99.90;;;;;;4972132;28;20187;-77
2021/01/24 01:07:05;;;;;;;1.93;1.73;;;2.00;99.90;;;;;;4971533;28;20207;-77
2021/01/24 01:09:31;;;;;;;2.27;1.47;;;2.00;99.90;;;;;;4976193;28;20215;-77
2021/01/24 01:11:57;;;;;;;1.73;1.63;;;2.00;99.90;;;;;;4981134;28;20166;-77
2021/01/24 01:14:23;;;;;;;1.80;1.50;;;2.00;99.90;;;;;;4980321;28;20227;-77
2021/01/24 01:16:48;;;;;;;2.43;1.90;;;2.00;99.90;;;;;;4958716;28;20430;-78
2021/01/24 01:19:14;;;;;;;1.90;1.63;;;2.10;99.90;;;;;;4974483;28;20271;-77
2021/01/24 01:21:40;;;;;;;2.43;2.23;;;2.00;99.90;;;;;;4981020;28;20594;-77
2021/01/24 01:24:06;;;;;;;2.60;2.40;;;2.00;99.90;;;;;;4981764;28;20744;-78
2021/01/24 01:26:32;;;;;;;2.50;2.30;;;2.00;99.90;;;;;;4959540;28;20191;-78
2021/01/24 01:28:57;;;;;;;2.10;1.90;;;2.00;99.90;;;;;;4974713;28;20223;-78
2021/01/24 01:31:23;;;;;;;1.33;1.23;;;1.90;99.90;;;;;;4959714;28;20276;-78
2021/01/24 01:33:49;;;;;;;1.50;1.40;;;1.90;99.90;;;;;;4971845;28;20771;-78
2021/01/24 01:36:14;;;;;;;0.93;0.87;;;1.80;99.90;;;;;;4971943;28;20249;-78
2021/01/24 01:38:40;;;;;;;1.07;0.83;;;1.80;99.90;;;;;;4971949;28;20230;-78
2021/01/24 01:41:06;;;;;;;0.63;0.47;;;1.70;99.90;;;;;;4954715;28;20554;-78
2021/01/24 01:43:32;;;;;;;2.08;0.85;;;1.70;99.90;;;;;;4971317;28;20254;-78
2021/01/24 01:45:57;;;;;;;0.80;0.50;;;1.60;99.90;;;;;;4977674;28;20203;-78
2021/01/24 01:48:23;;;;;;;0.50;0.40;;;1.60;99.90;;;;;;4977295;28;20601;-78
2021/01/24 01:50:49;;;;;;;0.70;0.60;;;1.60;99.90;;;;;;4957843;28;20721;-79
2021/01/24 01:53:15;;;;;;;0.70;0.47;;;1.70;99.90;;;;;;4974869;28;20211;-79
2021/01/24 01:55:40;;;;;;;0.80;0.60;;;1.60;99.90;;;;;;4976075;28;20197;-77
2021/01/24 01:58:06;;;;;;;0.90;0.60;;;1.60;99.90;;;;;;4977634;28;20837;-78
2021/01/24 02:00:32;;;;;;;0.77;0.43;;;1.60;99.90;;;;;;4975894;28;20279;-78
2021/01/24 02:03:25;;;;;;;1.20;0.57;;;1.60;99.90;;;;;;4976688;28;20294;-78
2021/01/24 02:06:13;;;;;;;0.82;0.55;;;1.60;99.90;;;;;;4959585;29;20438;-78
2021/01/24 02:08:59;;;;;;;0.90;0.60;;;1.60;99.90;;;;;;4970189;28;20277;-79
2021/01/24 02:11:39;;;;;;;1.23;0.70;;;1.60;99.90;;;;;;4974687;28;20230;-79
2021/01/24 02:14:22;;;;;;;0.80;0.70;;;1.60;99.90;;;;;;4974405;28;20226;-79
2021/01/24 02:16:49;;;;;;;1.60;1.48;;;1.60;99.90;;;;;;4972865;28;20610;-79
2021/01/24 02:19:43;;;;;;;0.70;0.70;;;1.60;99.90;;;;;;4974946;28;20206;-79
2021/01/24 02:22:12;;;;;;;1.00;0.90;;;1.60;99.90;;;;;;4979083;28;20242;-78
2021/01/24 02:24:41;;;;;;;1.48;0.73;;;1.60;99.90;;;;;;4962364;28;20565;-78
2021/01/24 02:27:14;;;;;;;1.40;1.05;;;1.60;99.90;;;;;;4961873;28;20235;-78
2021/01/24 02:30:08;;;;;;;1.30;1.20;;;1.60;99.90;;;;;;4959968;28;20262;-78
2021/01/24 02:32:35;;;;;;;1.10;0.90;;;1.60;99.90;;;;;;4942741;29;20628;-78
2021/01/24 02:35:02;;;;;;;1.75;1.20;;;1.60;99.90;;;;;;4961082;28;20188;-78
2021/01/24 02:37:29;;;;;;;2.42;1.90;;;1.60;99.90;;;;;;4974501;28;20203;-78
2021/01/24 02:39:55;;;;;;;2.30;1.83;;;1.60;99.90;;;;;;4958130;28;20207;-78
2021/01/24 02:42:21;;;;;;;3.00;2.70;;;1.60;99.90;;;;;;4973136;28;20257;-79
2021/01/24 02:44:47;;;;;;;4.50;2.90;;;1.70;99.90;;;;;;4974419;28;20227;-79
2021/01/24 02:47:15;;;;;;;4.40;3.25;;;1.70;99.90;;;;;;4973711;28;20223;-79
2021/01/24 02:49:44;;;;;;;4.88;2.95;;;1.60;99.90;;;;;;4974273;28;20654;-78
2021/01/24 02:52:12;;;;;;;4.13;2.67;;;1.60;99.90;;;;;;4973693;28;20231;-78
2021/01/24 02:54:39;;;;;;;4.32;2.65;;;1.60;99.90;;;;;;4954700;28;20192;-78
2021/01/24 02:57:05;;;;;;;3.65;3.15;;;1.60;99.90;;;;;;4953507;29;20319;-78
2021/01/24 02:59:32;;;;;;;3.53;2.10;;;1.60;99.90;;;;;;4973052;28;20627;-78
2021/01/24 03:01:58;;;;;;;5.82;3.42;;;1.60;99.90;;;;;;4976498;28;20422;-78
2021/01/24 03:04:24;;;;;;;4.88;3.60;;;1.60;99.90;;;;;;4973638;28;20590;-78
2021/01/24 03:06:49;;;;;;;4.93;3.03;;;1.60;99.90;;;;;;4973345;28;20198;-78
2021/01/24 03:09:15;;;;;;;5.23;3.27;;;1.60;99.90;;;;;;4974895;28;20200;-78
2021/01/24 03:11:45;;;;;;;5.30;2.70;;;1.60;99.90;;;;;;4956837;28;20254;-79
2021/01/24 03:14:23;;;;;;;5.60;4.22;;;1.60;99.90;;;;;;4973589;28;20490;-79
2021/01/24 03:16:54;;;;;;;6.28;3.95;;;1.60;99.90;;;;;;4973021;28;20195;-79
2021/01/24 03:19:21;;;;;;;6.03;4.10;;;1.60;99.90;;;;;;4975526;28;20210;-78
2021/01/24 03:21:49;;;;;;;7.10;4.53;;;1.70;99.90;;;;;;4973255;28;20191;-79
2021/01/24 03:24:16;;;;;;;7.40;4.97;;;1.60;99.90;;;;;;4973926;28;20311;-79
2021/01/24 03:26:44;;;;;;;8.20;5.70;;;1.70;99.90;;;;;;4972921;28;20620;-79
2021/01/24 03:29:10;;;;;;;6.35;5.40;;;1.70;99.90;;;;;;4958218;28;20495;-78
2021/01/24 03:31:38;;;;;;;7.75;5.82;;;1.70;99.90;;;;;;4973758;28;20202;-79
2021/01/24 03:34:07;;;;;;;9.63;5.97;;;1.70;99.90;;;;;;4972984;28;20231;-79
2021/01/24 03:36:33;;;;;;;10.02;6.55;;;1.70;99.90;;;;;;4973169;28;20199;-79
2021/01/24 03:38:58;;;;;;;8.57;6.10;;;1.80;99.90;;;;;;4974117;28;20246;-78
2021/01/24 03:41:24;;;;;;;11.00;7.40;;;1.80;99.90;;;;;;4973781;28;20202;-79
2021/01/24 03:43:50;;;;;;;10.90;8.30;;;1.80;99.90;;;;;;4974155;28;20245;-78
2021/01/24 03:46:15;;;;;;;11.07;6.70;;;1.80;99.90;;;;;;4975370;28;20271;-78
2021/01/24 03:48:41;;;;;;;10.90;6.77;;;1.80;99.90;;;;;;4973697;28;20277;-79
2021/01/24 03:51:07;;;;;;;13.90;8.53;;;1.80;99.90;;;;;;4975380;28;20253;-78
2021/01/24 03:53:32;;;;;;;12.23;8.37;;;1.80;99.90;;;;;;4975343;28;20702;-78
2021/01/24 03:55:58;;;;;;;12.00;8.10;;;1.80;99.90;;;;;;4976011;28;20199;-78
2021/01/24 03:58:24;;;;;;;15.27;10.80;;;1.80;99.90;;;;;;4974820;28;20219;-78
2021/01/24 04:00:49;;;;;;;18.23;10.77;;;1.80;99.90;;;;;;4974160;28;20199;-79
2021/01/24 04:03:15;;;;;;;18.60;12.23;;;1.80;99.90;;;;;;4976511;28;20298;-79
2021/01/24 04:05:40;;;;;;;16.73;11.77;;;1.80;99.90;;;;;;4991456;28;20206;-78
2021/01/24 04:08:06;;;;;;;20.47;12.47;;;1.80;99.90;;;;;;4993672;28;20341;-78
2021/01/24 04:10:32;;;;;;;17.40;10.40;;;1.80;99.90;;;;;;4978641;28;20207;-78
2021/01/24 04:12:57;;;;;;;21.40;12.87;;;1.80;99.90;;;;;;4956770;28;20269;-78
2021/01/24 04:15:23;;;;;;;17.07;11.30;;;1.70;99.90;;;;;;4956832;28;20191;-78
2021/01/24 04:17:49;;;;;;;23.47;14.77;;;1.70;99.90;;;;;;4972556;28;20357;-78
2021/01/24 04:20:15;;;;;;;17.60;11.67;;;1.70;99.90;;;;;;4957410;28;20229;-80
2021/01/24 04:22:40;;;;;;;19.53;12.80;;;1.80;99.90;;;;;;4972985;28;20700;-80
2021/01/24 04:25:07;;;;;;;22.30;13.80;;;1.80;99.90;;;;;;4973249;28;20274;-80
2021/01/24 04:27:32;;;;;;;16.65;12.35;;;1.80;99.90;;;;;;4973112;28;20298;-80
2021/01/24 04:30:28;;;;;;;;;;;;;;;;;;;;;
2021/01/24 04:32:55;;;;;;;15.98;11.18;;;1.80;99.90;;;;;;4957389;28;20226;-80
2021/01/24 04:35:22;;;;;;;14.20;10.57;;;1.80;99.90;;;;;;4967172;28;20258;-80
2021/01/24 04:37:47;;;;;;;14.15;10.40;;;1.80;99.90;;;;;;4972733;28;20211;-79
2021/01/24 04:40:15;;;;;;;17.50;12.00;;;1.80;99.90;;;;;;4973723;28;20169;-79
2021/01/24 04:42:41;;;;;;;13.57;10.68;;;1.80;99.90;;;;;;4971996;28;20461;-79
2021/01/24 04:45:08;;;;;;;15.70;10.40;;;1.80;99.90;;;;;;4973074;28;20183;-79
2021/01/24 04:47:37;;;;;;;14.25;9.95;;;1.80;99.90;;;;;;4954534;28;20207;-79
2021/01/24 04:50:03;;;;;;;12.77;10.15;;;1.80;99.90;;;;;;4973768;28;20167;-80
2021/01/24 04:52:29;;;;;;;13.18;9.18;;;1.80;99.90;;;;;;4955229;28;20207;-79
2021/01/24 04:54:56;;;;;;;10.00;7.60;;;1.80;99.90;;;;;;4973452;28;20187;-79
2021/01/24 04:57:23;;;;;;;14.93;8.05;;;1.90;99.90;;;;;;4972816;28;20286;-79
2021/01/24 04:59:49;;;;;;;8.75;6.78;;;1.80;99.90;;;;;;4973551;28;20199;-79
2021/01/24 05:02:15;;;;;;;10.10;6.80;;;1.80;99.90;;;;;;4973658;28;20207;-80
2021/01/24 05:04:41;;;;;;;9.60;7.25;;;1.80;99.90;;;;;;4974239;28;20262;-80
2021/01/24 05:07:06;;;;;;;9.63;7.37;;;1.80;99.90;;;;;;4973619;28;20278;-81
2021/01/24 05:09:33;;;;;;;7.87;5.90;;;1.80;99.90;;;;;;4974511;28;20534;-80
2021/01/24 05:11:59;;;;;;;10.30;6.32;;;1.80;99.90;;;;;;4956337;28;20199;-80
2021/01/24 05:14:25;;;;;;;8.27;5.67;;;1.80;99.90;;;;;;4974069;28;20278;-80
2021/01/24 05:16:52;;;;;;;6.97;5.13;;;1.80;99.90;;;;;;4956229;28;20231;-81
2021/01/24 05:19:21;;;;;;;7.88;5.45;;;1.90;99.90;;;;;;4976191;28;20457;-81
2021/01/24 05:21:47;;;;;;;9.05;6.03;;;1.80;99.90;;;;;;4977656;28;20813;-81
2021/01/24 05:24:15;;;;;;;5.88;5.20;;;1.80;99.90;;;;;;4977930;28;20190;-81
2021/01/24 05:26:49;;;;;;;6.90;5.10;;;1.80;99.90;;;;;;4977872;28;20745;-81
2021/01/24 05:29:23;;;;;;;5.95;4.40;;;1.80;99.90;;;;;;4978247;28;20223;-81
2021/01/24 05:32:43;;;;;;;5.57;5.00;;;1.80;99.90;;;;;;4978024;28;20218;-80
2021/01/24 05:35:13;;;;;;;5.40;4.40;;;1.80;99.90;;;;;;4977834;28;20194;-80
2021/01/24 05:37:40;;;;;;;5.80;4.35;;;1.80;99.90;;;;;;4959859;28;20211;-81
2021/01/24 05:40:07;;;;;;;6.47;4.90;;;1.80;99.90;;;;;;4977873;28;20170;-80
2021/01/24 05:42:37;;;;;;;8.15;5.53;;;1.90;99.90;;;;;;4960352;28;20206;-80
2021/01/24 05:45:18;;;;;;;8.77;6.13;;;1.80;99.90;;;;;;4977575;28;20214;-81
2021/01/24 05:47:47;;;;;;;9.07;6.85;;;1.90;99.90;;;;;;4977214;28;20199;-80
2021/01/24 05:50:15;;;;;;;9.63;7.07;;;1.90;99.90;;;;;;4977536;28;20246;-80
2021/01/24 05:52:45;;;;;;;12.82;6.90;;;1.90;99.90;;;;;;4976962;28;20257;-81
2021/01/24 05:55:32;;;;;;;8.63;5.50;;;1.90;99.90;;;;;;4977430;28;20183;-80
2021/01/24 05:57:58;;;;;;;9.43;6.50;;;1.90;99.90;;;;;;4976946;28;20245;-80
2021/01/24 06:00:24;;;;;;;7.78;6.90;;;1.90;99.90;;;;;;4977740;28;20522;-80
2021/01/24 06:02:50;;;;;;;10.20;8.20;;;1.90;99.90;;;;;;4983641;28;20570;-79
2021/01/24 06:05:17;;;;;;;10.23;7.18;;;1.90;99.90;;;;;;4966939;28;20183;-79
2021/01/24 06:07:42;;;;;;;8.18;6.80;;;1.90;99.90;;;;;;4959703;28;20212;-81
2021/01/24 06:10:08;;;;;;;10.60;7.20;;;1.90;99.90;;;;;;4977500;28;20166;-80
2021/01/24 06:12:36;;;;;;;9.40;6.90;;;1.90;99.90;;;;;;4976665;28;20203;-80
2021/01/24 06:15:04;;;;;;;12.88;8.38;;;1.90;99.90;;;;;;4977223;28;20179;-81
2021/01/24 06:17:37;;;;;;;10.13;8.13;;;1.90;99.90;;;;;;4976481;28;20215;-80
2021/01/24 06:20:05;;;;;;;13.25;9.07;;;1.90;99.90;;;;;;4977258;28;20162;-80
2021/01/24 06:23:02;;;;;;;12.30;8.85;;;1.90;99.90;;;;;;4979098;28;20203;-80
2021/01/24 06:25:35;;;;;;;10.40;7.60;;;1.90;99.90;;;;;;4976994;28;20187;-80
2021/01/24 06:28:24;;;;;;;11.55;7.88;;;1.90;99.90;;;;;;4960007;28;20215;-80
2021/01/24 06:30:51;;;;;;;12.48;8.35;;;1.90;99.90;;;;;;4976091;28;20185;-80
2021/01/24 06:33:18;;;;;;;8.88;7.40;;;1.90;99.90;;;;;;4980529;28;20273;-79
2021/01/24 06:35:49;;;;;;;10.32;7.10;;;1.90;99.90;;;;;;4986020;28;20193;-79
2021/01/24 06:38:34;;;;;;;11.02;7.32;;;1.90;99.90;;;;;;4964787;28;20215;-79
2021/01/24 06:41:02;;;;;;;10.18;7.13;;;1.90;99.90;;;;;;4977084;28;20534;-80
2021/01/24 06:43:42;;;;;;;10.73;8.95;;;1.90;99.90;;;;;;4976039;28;20207;-80
2021/01/24 06:46:21;;;;;;;11.68;8.02;;;1.90;99.90;;;;;;4977121;28;20234;-80
2021/01/24 06:48:48;;;;;;;10.63;7.47;;;1.90;99.90;;;;;;4975989;28;20241;-80
2021/01/24 06:51:42;;;;;;;11.50;7.50;;;1.90;99.90;;;;;;4977175;28;20171;-80
2021/01/24 06:54:14;;;;;;;10.45;8.38;;;1.90;99.90;;;;;;4952181;29;20215;-78
2021/01/24 06:56:42;;;;;;;11.48;8.25;;;1.90;99.90;;;;;;4957344;29;20195;-80
2021/01/24 06:59:09;;;;;;;10.45;8.40;;;1.90;99.90;;;;;;4955226;28;20223;-80
2021/01/24 07:01:36;;;;;;;11.95;8.10;;;1.90;99.90;;;;;;4974572;28;20206;-79
2021/01/24 07:04:20;;;;;;;15.23;10.13;;;2.00;99.90;;;;;;4991150;28;20226;-78
2021/01/24 07:06:50;;;;;;;11.15;8.57;;;2.00;99.90;;;;;;4988099;28;20256;-78
2021/01/24 07:09:27;;;;;;;17.00;9.52;;;2.00;99.90;;;;;;4995507;28;20203;-78
2021/01/24 07:12:17;;;;;;;18.13;10.82;;;2.00;99.90;;;;;;4985748;28;20175;-80
2021/01/24 07:18:10;;;;;;;15.18;9.60;;;2.00;99.90;;;;;;4993449;28;20282;-79
2021/01/24 07:23:58;;;;;;;15.85;11.02;;;1.90;99.90;;;;;;4906165;29;20277;-79
2021/01/24 07:27:12;;;;;;;11.77;9.70;;;1.90;99.90;;;;;;4975363;28;20191;-79
2021/01/24 07:29:45;;;;;;;13.88;9.90;;;2.00;99.90;;;;;;4949000;28;20199;-79
2021/01/24 07:32:47;;;;;;;15.00;9.35;;;2.00;99.90;;;;;;4978500;28;20203;-78
2021/01/24 07:35:15;;;;;;;15.95;10.65;;;1.90;99.90;;;;;;4989603;28;20601;-78
2021/01/24 07:41:09;;;;;;;21.35;10.45;;;1.90;99.90;;;;;;4989493;28;20189;-78
2021/01/24 07:46:57;;;;;;;13.82;8.02;;;2.00;99.90;;;;;;4985025;28;20179;-78
2021/01/24 07:49:24;;;;;;;12.70;8.95;;;2.00;99.90;;;;;;4981762;28;20195;-78
2021/01/24 07:52:35;;;;;;;;;;;;;;;;;;;;;
2021/01/24 07:55:02;;;;;;;11.27;8.85;;;2.00;99.90;;;;;;4992959;28;20214;-77
2021/01/24 07:57:27;;;;;;;10.35;7.57;;;2.00;99.90;;;;;;4975184;28;20266;-78
2021/01/24 07:59:54;;;;;;;12.37;9.90;;;2.00;99.90;;;;;;4993950;28;20214;-78
2021/01/24 08:02:20;;;;;;;12.27;9.00;;;2.00;99.90;;;;;;4990733;28;20214;-78
2021/01/24 08:05:06;;;;;;;11.20;8.60;;;2.00;99.90;;;;;;4981814;28;20234;-78
2021/01/24 08:07:39;;;;;;;11.27;7.97;;;2.00;99.90;;;;;;4985341;28;20606;-78
2021/01/24 08:10:13;;;;;;;13.00;9.30;;;2.00;99.90;;;;;;4977746;28;20199;-79
2021/01/24 08:13:23;;;;;;;16.23;10.23;;;2.00;99.90;;;;;;4968259;28;20175;-80
2021/01/24 08:16:10;;;;;;;13.60;9.88;;;2.00;99.90;;;;;;4989365;28;20264;-79
2021/01/24 08:18:38;;;;;;;15.93;10.40;;;2.00;99.90;;;;;;4988009;28;20218;-78
2021/01/24 08:21:30;;;;;;;16.02;11.48;;;2.00;99.90;;;;;;4983854;28;20204;-78
2021/01/24 08:24:34;;;;;;;13.80;10.52;;;2.00;99.90;;;;;;4958121;28;20388;-78
2021/01/24 08:27:00;;;;;;;17.88;13.30;;;2.00;99.90;;;;;;4965017;28;20179;-78
2021/01/24 08:29:47;;;;;;;19.95;11.93;;;2.00;99.90;;;;;;4983744;28;20199;-80
2021/01/24 08:32:16;;;;;;;19.27;14.32;;;2.00;99.90;;;;;;4977548;28;20689;-80
2021/01/24 08:34:41;;;;;;;17.70;13.13;;;2.00;99.90;;;;;;4965106;28;20206;-79
2021/01/24 08:37:10;;;;;;;19.13;12.80;;;2.00;99.90;;;;;;4980542;28;20894;-80
2021/01/24 08:39:38;;;;;;;16.10;12.00;;;2.00;99.90;;;;;;4966964;28;20262;-78
2021/01/24 08:42:05;;;;;;;19.40;13.25;;;2.00;99.90;;;;;;4987563;28;20241;-78
2021/01/24 08:44:31;;;;;;;18.38;12.65;;;2.00;99.90;;;;;;4985024;28;20215;-80
2021/01/24 08:47:05;;;;;;;13.77;10.50;;;2.00;99.90;;;;;;4976342;28;20198;-78
2021/01/24 08:49:31;;;;;;;17.38;12.32;;;2.10;99.90;;;;;;4962505;28;20245;-80
2021/01/24 08:51:57;;;;;;;16.20;11.93;;;2.10;99.90;;;;;;4978881;28;20191;-79
2021/01/24 08:54:30;;;;;;;19.40;12.68;;;2.00;99.90;;;;;;4982624;28;20427;-78
2021/01/24 08:57:18;;;;;;;21.50;13.40;;;2.00;99.90;;;;;;4966504;28;20379;-78
2021/01/24 08:59:49;;;;;;;18.55;12.57;;;2.00;99.90;;;;;;4980550;28;20751;-78
2021/01/24 09:02:26;;;;;;;20.88;13.45;;;2.00;99.90;;;;;;4975145;28;20175;-78
2021/01/24 09:04:52;;;;;;;23.40;14.20;;;2.00;99.90;;;;;;4960781;28;20520;-78
2021/01/24 09:07:19;;;;;;;22.97;16.07;;;2.00;99.90;;;;;;4966450;28;20209;-78
2021/01/24 09:09:49;;;;;;;23.17;15.40;;;2.00;99.90;;;;;;4976903;28;21032;-78
2021/01/24 09:12:33;;;;;;;25.02;16.10;;;2.00;99.90;;;;;;4964716;28;20202;-80
2021/01/24 09:14:59;;;;;;;20.95;15.02;;;2.00;99.90;;;;;;4978141;28;20250;-78
2021/01/24 09:17:28;;;;;;;23.70;15.63;;;2.00;99.90;;;;;;4979503;28;20218;-79
2021/01/24 09:19:53;;;;;;;21.35;13.85;;;2.10;99.90;;;;;;4984088;28;20206;-78
2021/01/24 09:22:22;;;;;;;19.87;12.63;;;2.10;99.90;;;;;;4980283;28;20206;-80
2021/01/24 09:25:29;;;;;;;22.10;14.15;;;2.10;99.90;;;;;;4983209;28;20195;-80
2021/01/24 09:27:54;;;;;;;19.20;12.45;;;2.10;99.90;;;;;;4988084;28;20234;-78
2021/01/24 09:30:59;;;;;;;18.20;14.00;;;2.10;99.90;;;;;;4967699;28;20199;-80
2021/01/24 09:33:24;;;;;;;16.77;11.73;;;2.10;99.90;;;;;;4979572;28;20174;-78
2021/01/24 09:35:50;;;;;;;20.07;13.13;;;2.00;99.90;;;;;;4981067;28;20172;-79
2021/01/24 09:38:18;;;;;;;23.20;14.87;;;2.10;99.90;;;;;;4977671;28;20223;-79
2021/01/24 09:40:48;;;;;;;18.45;13.85;;;2.10;99.90;;;;;;4976837;28;20209;-78
2021/01/24 09:43:20;;;;;;;21.90;13.47;;;2.10;99.90;;;;;;4980190;28;20765;-81
2021/01/24 09:45:58;;;;;;;18.90;12.68;;;2.10;99.90;;;;;;4979764;28;20183;-80
2021/01/24 09:48:25;;;;;;;16.40;12.70;;;2.10;99.90;;;;;;4962804;28;20586;-79
2021/01/24 09:50:51;;;;;;;17.52;13.93;;;2.10;99.90;;;;;;4983727;28;20198;-79
2021/01/24 09:53:37;;;;;;;21.70;14.40;;;2.10;99.90;;;;;;4976824;28;20211;-80
2021/01/24 09:56:04;;;;;;;20.48;14.25;;;2.20;99.90;;;;;;4973576;28;20453;-80
2021/01/24 09:58:31;;;;;;;23.52;13.98;;;2.20;99.90;;;;;;4972915;28;20215;-80
2021/01/24 10:00:57;;;;;;;20.27;14.02;;;2.10;99.90;;;;;;4976805;28;20199;-78
2021/01/24 10:03:31;;;;;;;21.80;14.73;;;2.10;99.90;;;;;;4967995;28;20259;-79
2021/01/24 10:05:57;;;;;;;19.58;14.23;;;2.10;99.90;;;;;;4990581;28;20209;-78
2021/01/24 10:08:22;;;;;;;21.13;15.67;;;2.20;99.90;;;;;;4974620;28;20689;-79
2021/01/24 10:10:48;;;;;;;20.87;15.87;;;2.20;99.90;;;;;;4985708;28;20199;-78
2021/01/24 10:13:17;;;;;;;20.33;15.07;;;2.20;99.90;;;;;;5015178;23;20222;-78
2021/01/24 10:15:43;;;;;;;23.10;15.48;;;2.30;99.90;;;;;;4973464;28;20200;-78
2021/01/24 10:18:27;;;;;;;19.60;14.57;;;2.30;99.90;;;;;;4974284;28;20231;-78
2021/01/24 10:21:34;;;;;;;24.60;14.73;;;2.30;99.90;;;;;;4972524;28;20160;-78
2021/01/24 10:24:09;;;;;;;20.27;14.00;;;2.30;99.90;;;;;;4877650;29;20209;-78
2021/01/24 10:26:47;;;;;;;20.10;13.70;;;2.40;99.90;;;;;;4978783;28;20200;-79
2021/01/24 10:29:12;;;;;;;20.42;12.90;;;2.40;99.90;;;;;;4960631;29;20207;-78
2021/01/24 10:31:41;;;;;;;19.30;13.90;;;2.40;99.90;;;;;;4962708;29;20220;-79
2021/01/24 10:34:08;;;;;;;16.73;12.57;;;2.50;99.90;;;;;;4963167;29;20195;-77
2021/01/24 10:36:35;;;;;;;19.48;13.20;;;2.50;99.90;;;;;;4964397;28;20258;-78
2021/01/24 10:39:00;;;;;;;21.48;12.05;;;2.50;99.90;;;;;;4965362;28;20726;-80
2021/01/24 10:41:26;;;;;;;15.00;11.63;;;2.60;99.90;;;;;;4965987;29;20208;-80
2021/01/24 10:43:53;;;;;;;15.53;10.13;;;2.60;99.90;;;;;;4968341;29;20287;-78
2021/01/24 10:46:43;;;;;;;23.35;10.82;;;2.70;99.90;;;;;;4969384;29;20172;-77
2021/01/24 10:49:10;;;;;;;14.80;10.90;;;2.70;99.90;;;;;;4967576;29;20218;-77
2021/01/24 10:55:04;;;;;;;14.32;9.73;;;2.70;99.90;;;;;;4942885;29;20580;-80
2021/01/24 11:00:58;;;;;;;17.52;12.05;;;2.80;99.90;;;;;;4962336;28;20226;-80
2021/01/24 11:03:29;;;;;;;14.67;11.20;;;2.80;99.90;;;;;;4956790;29;20726;-77
2021/01/24 11:05:56;;;;;;;19.42;11.45;;;2.80;99.90;;;;;;4966929;28;20180;-80
2021/01/24 11:08:21;;;;;;;15.13;11.00;;;2.70;99.90;;;;;;4957149;28;20208;-80
2021/01/24 11:10:47;;;;;;;14.90;11.13;;;2.70;99.90;;;;;;4955847;29;20570;-80
2021/01/24 11:13:13;;;;;;;14.63;10.67;;;2.70;99.90;;;;;;4956139;28;20450;-81
2021/01/24 11:15:38;;;;;;;22.37;12.17;;;2.70;99.90;;;;;;4964789;28;20298;-80
2021/01/24 11:18:40;;;;;;;13.80;10.80;;;2.70;99.90;;;;;;4957412;28;20690;-79
2021/01/24 11:21:11;;;;;;;12.80;9.32;;;2.70;99.90;;;;;;4977918;28;20302;-79
2021/01/24 11:23:43;;;;;;;19.27;11.55;;;2.70;99.90;;;;;;4974614;28;20251;-80
2021/01/24 11:26:09;;;;;;;15.85;10.38;;;2.80;99.90;;;;;;4953232;29;20264;-79
2021/01/24 11:28:35;;;;;;;15.50;11.15;;;2.80;99.90;;;;;;4976335;28;20200;-78
2021/01/24 11:31:01;;;;;;;14.97;11.43;;;2.90;99.90;;;;;;4973035;29;20246;-79
2021/01/24 11:33:27;;;;;;;18.80;11.00;;;2.90;99.90;;;;;;4969525;28;20506;-79
2021/01/24 11:35:53;;;;;;;20.37;9.73;;;2.90;99.90;;;;;;4967207;29;20454;-79
2021/01/24 11:38:18;;;;;;;11.70;8.30;;;2.90;99.90;;;;;;4973358;28;20546;-79
2021/01/24 11:40:44;;;;;;;13.30;9.23;;;3.00;99.90;;;;;;4971618;29;20179;-79
2021/01/24 11:43:10;;;;;;;14.20;9.97;;;3.00;99.90;;;;;;4972902;28;20466;-79
2021/01/24 11:45:36;;;;;;;12.90;9.70;;;3.00;99.90;;;;;;4968779;29;20511;-79
2021/01/24 11:48:03;;;;;;;13.10;8.77;;;3.00;99.90;;;;;;4972811;28;20236;-79
2021/01/24 11:50:29;;;;;;;15.85;9.00;;;3.00;99.90;;;;;;4975691;28;20183;-79
2021/01/24 11:52:54;;;;;;;12.53;8.50;;;2.90;99.90;;;;;;4974991;28;20219;-79
2021/01/24 11:56:12;;;;;;;;;;;;;;;;;;;;;
2021/01/24 11:58:46;;;;;;;15.13;9.70;;;2.90;99.90;;;;;;4901928;29;20206;-79
2021/01/24 12:01:12;;;;;;;12.65;8.60;;;2.90;99.90;;;;;;4961589;29;20212;-79
2021/01/24 12:03:38;;;;;;;17.37;10.37;;;3.00;99.90;;;;;;4969835;28;20243;-79
2021/01/24 12:06:04;;;;;;;13.30;9.27;;;3.00;99.90;;;;;;4970160;29;20439;-79
2021/01/24 12:08:29;;;;;;;12.25;8.90;;;3.00;99.90;;;;;;4970602;28;20222;-80
2021/01/24 12:10:55;;;;;;;14.13;8.67;;;3.00;99.90;;;;;;4967712;29;20231;-79
2021/01/24 12:13:21;;;;;;;10.53;7.97;;;3.00;99.90;;;;;;4971150;28;20224;-79
2021/01/24 12:15:47;;;;;;;16.87;9.10;;;3.00;99.90;;;;;;4970649;28;20431;-79
2021/01/24 12:18:12;;;;;;;14.60;8.80;;;3.00;99.90;;;;;;4970430;28;20231;-79
2021/01/24 12:20:38;;;;;;;15.00;8.80;;;3.00;99.90;;;;;;4970679;28;20172;-79
2021/01/24 12:23:04;;;;;;;12.23;8.40;;;2.90;99.90;;;;;;4967611;28;20725;-79
2021/01/24 12:25:30;;;;;;;10.57;7.80;;;3.00;99.90;;;;;;4952632;29;20222;-79
2021/01/24 12:27:56;;;;;;;14.93;8.60;;;3.10;99.90;;;;;;4966167;28;20215;-79
2021/01/24 12:30:22;;;;;;;14.50;9.67;;;3.10;99.90;;;;;;4948671;29;20204;-79
2021/01/24 12:32:48;;;;;;;15.02;8.98;;;3.20;99.90;;;;;;4963779;29;20256;-79
2021/01/24 12:35:14;;;;;;;12.50;8.67;;;3.20;99.90;;;;;;4960825;28;20195;-79
2021/01/24 12:37:39;;;;;;;14.90;8.70;;;3.20;99.90;;;;;;4962250;29;20455;-79
2021/01/24 12:40:07;;;;;;;15.10;8.20;;;3.20;99.90;;;;;;4948173;29;20360;-79
2021/01/24 12:42:33;;;;;;;14.10;7.75;;;3.30;99.90;;;;;;4965683;29;20208;-79
2021/01/24 12:44:59;;;;;;;12.90;7.97;;;3.30;99.90;;;;;;4968088;28;20194;-79
2021/01/24 12:47:25;;;;;;;12.83;8.70;;;3.40;99.90;;;;;;4976167;28;20223;-79
2021/01/24 12:49:50;;;;;;;10.90;8.67;;;3.40;99.90;;;;;;4973001;28;20443;-79
2021/01/24 12:52:16;;;;;;;13.00;9.40;;;3.40;99.90;;;;;;4975577;28;20219;-79
2021/01/24 12:54:42;;;;;;;16.10;10.43;;;3.40;99.90;;;;;;4977120;28;20211;-79
2021/01/24 12:57:08;;;;;;;17.27;10.20;;;3.40;99.90;;;;;;4977023;28;20206;-79
2021/01/24 12:59:34;;;;;;;13.67;9.37;;;3.40;99.90;;;;;;4977489;28;20227;-79
2021/01/24 13:02:03;;;;;;;13.53;9.40;;;3.40;99.90;;;;;;4977614;28;20183;-79
2021/01/24 13:04:33;;;;;;;18.23;9.50;;;3.50;99.90;;;;;;4977865;28;20459;-80
2021/01/24 13:06:59;;;;;;;17.85;9.65;;;3.40;99.90;;;;;;4977380;28;20192;-79
2021/01/24 13:09:26;;;;;;;14.90;10.05;;;3.40;99.90;;;;;;4977585;28;20184;-79
2021/01/24 13:11:51;;;;;;;14.30;9.80;;;3.40;99.90;;;;;;4977005;28;20247;-79
2021/01/24 13:14:18;;;;;;;13.40;9.63;;;3.40;99.90;;;;;;4977224;28;20224;-79
2021/01/24 13:16:44;;;;;;;13.73;9.93;;;3.30;99.90;;;;;;4977710;28;20442;-78
2021/01/24 13:19:10;;;;;;;12.50;10.00;;;3.30;99.90;;;;;;4977540;28;20223;-79
2021/01/24 13:21:37;;;;;;;10.45;9.15;;;3.30;99.90;;;;;;4989952;28;20202;-79
2021/01/24 13:24:04;;;;;;;15.07;10.32;;;3.30;99.90;;;;;;4976767;28;20229;-79
2021/01/24 13:26:30;;;;;;;11.68;8.68;;;3.20;99.90;;;;;;4977996;28;20148;-79